createdAt,value
2023-05-04T00:01:21.584Z,1012.28
2023-05-04T00:04:21.609Z,1012.25
2023-05-04T00:07:21.647Z,1012.24
2023-05-04T00:10:21.590Z,1012.21
2023-05-04T00:13:21.582Z,1012.22
2023-05-04T00:16:21.598Z,1012.25
2023-05-04T00:19:21.590Z,1012.23
2023-05-04T00:22:21.591Z,1012.23
2023-05-04T00:25:21.587Z,1012.17
2023-05-04T00:28:21.586Z,1012.15
2023-05-04T00:31:21.609Z,1012.11
2023-05-04T00:34:21.581Z,1012.12
2023-05-04T00:37:21.598Z,1012.1
2023-05-04T00:40:21.576Z,1012.1
2023-05-04T00:43:21.586Z,1012.06
2023-05-04T00:46:21.588Z,1012.09
2023-05-04T00:49:21.772Z,1012.09
2023-05-04T00:52:21.590Z,1012.1
2023-05-04T00:55:21.585Z,1012.11
2023-05-04T00:58:21.587Z,1012.06
2023-05-04T01:01:21.594Z,1012
2023-05-04T01:04:21.598Z,1011.97
2023-05-04T01:07:21.579Z,1012.01
2023-05-04T01:10:21.585Z,1012
2023-05-04T01:13:21.571Z,1011.98
2023-05-04T01:16:21.647Z,1011.97
2023-05-04T01:19:21.651Z,1011.92
2023-05-04T01:22:21.584Z,1011.9
2023-05-04T01:25:21.565Z,1011.88
2023-05-04T01:28:21.569Z,1011.91
2023-05-04T01:31:21.600Z,1011.92
2023-05-04T01:34:21.568Z,1011.92
2023-05-04T01:37:21.573Z,1011.96
2023-05-04T01:40:21.562Z,1011.93
2023-05-04T01:43:21.566Z,1011.97
2023-05-04T01:46:21.576Z,1011.95
2023-05-04T01:49:21.553Z,1011.91
2023-05-04T01:52:21.556Z,1011.94
2023-05-04T01:55:21.550Z,1011.93
2023-05-04T01:58:21.556Z,1011.91
2023-05-04T02:01:21.571Z,1011.92
2023-05-04T02:04:21.542Z,1011.88
2023-05-04T02:07:21.548Z,1011.89
2023-05-04T02:10:21.550Z,1011.91
2023-05-04T02:13:21.543Z,1011.91
2023-05-04T02:16:21.607Z,1011.94
2023-05-04T02:19:21.551Z,1011.95
2023-05-04T02:22:21.542Z,1011.94
2023-05-04T02:25:21.550Z,1011.94
2023-05-04T02:28:21.553Z,1011.91
2023-05-04T02:31:21.567Z,1011.91
2023-05-04T02:34:21.544Z,1011.85
2023-05-04T02:37:21.544Z,1011.85
2023-05-04T02:40:21.542Z,1011.84
2023-05-04T02:43:21.586Z,1011.85
2023-05-04T02:46:21.677Z,1011.82
2023-05-04T02:49:21.548Z,1011.88
2023-05-04T02:52:21.547Z,1011.83
2023-05-04T02:55:21.553Z,1011.82
2023-05-04T02:58:21.537Z,1011.79
2023-05-04T03:01:21.628Z,1011.78
2023-05-04T03:04:21.605Z,1011.8
2023-05-04T03:07:21.579Z,1011.77
2023-05-04T03:10:21.573Z,1011.79
2023-05-04T03:13:21.570Z,1011.78
2023-05-04T03:16:21.585Z,1011.71
2023-05-04T03:19:21.570Z,1011.68
2023-05-04T03:22:21.582Z,1011.71
2023-05-04T03:25:21.567Z,1011.7
2023-05-04T03:28:21.568Z,1011.71
2023-05-04T03:31:21.616Z,1011.73
2023-05-04T03:34:21.734Z,1011.7
2023-05-04T03:37:21.572Z,1011.66
2023-05-04T03:40:21.573Z,1011.6
2023-05-04T03:43:21.567Z,1011.6
2023-05-04T03:46:21.615Z,1011.58
2023-05-04T03:49:21.568Z,1011.62
2023-05-04T03:52:21.567Z,1011.63
2023-05-04T03:55:21.564Z,1011.63
2023-05-04T03:58:21.563Z,1011.63
2023-05-04T04:01:21.568Z,1011.59
2023-05-04T04:04:21.657Z,1011.59
2023-05-04T04:07:21.565Z,1011.59
2023-05-04T04:10:21.554Z,1011.56
2023-05-04T04:13:21.586Z,1011.59
2023-05-04T04:16:21.682Z,1011.6
2023-05-04T04:19:21.550Z,1011.58
2023-05-04T04:22:21.574Z,1011.51
2023-05-04T04:25:21.631Z,1011.51
2023-05-04T04:28:21.643Z,1011.53
2023-05-04T04:31:21.648Z,1011.57
2023-05-04T04:34:21.560Z,1011.55
2023-05-04T04:37:21.547Z,1011.54
2023-05-04T04:40:21.545Z,1011.58
2023-05-04T04:43:21.545Z,1011.57
2023-05-04T04:46:21.610Z,1011.66
2023-05-04T04:49:21.540Z,1011.71
2023-05-04T04:52:21.540Z,1011.74
2023-05-04T04:55:21.536Z,1011.77
2023-05-04T04:58:21.543Z,1011.77
2023-05-04T05:01:21.574Z,1011.81
2023-05-04T05:04:21.591Z,1011.77
2023-05-04T05:07:21.534Z,1011.8
2023-05-04T05:10:21.539Z,1011.83
2023-05-04T05:13:21.601Z,1011.86
2023-05-04T05:16:21.576Z,1011.83
2023-05-04T05:19:21.540Z,1011.87
2023-05-04T05:22:21.544Z,1011.86
2023-05-04T05:25:21.532Z,1011.88
2023-05-04T05:28:21.532Z,1011.9
2023-05-04T05:31:21.564Z,1011.89
2023-05-04T05:34:21.549Z,1011.89
2023-05-04T05:37:21.544Z,1011.94
2023-05-04T05:40:21.543Z,1011.91
2023-05-04T05:43:21.552Z,1011.89
2023-05-04T05:46:21.590Z,1011.84
2023-05-04T05:49:21.552Z,1011.86
2023-05-04T05:52:21.546Z,1011.89
2023-05-04T05:55:21.548Z,1011.88
2023-05-04T05:58:21.557Z,1011.89
2023-05-04T06:01:21.545Z,1011.85
2023-05-04T06:04:21.605Z,1011.85
2023-05-04T06:07:21.546Z,1011.81
2023-05-04T06:10:21.540Z,1011.74
2023-05-04T06:13:21.548Z,1011.8
2023-05-04T06:16:21.566Z,1011.8
2023-05-04T06:19:21.534Z,1011.75
2023-05-04T06:22:21.534Z,1011.73
2023-05-04T06:25:21.539Z,1011.74
2023-05-04T06:28:21.535Z,1011.73
2023-05-04T06:31:21.534Z,1011.73
2023-05-04T06:34:21.526Z,1011.79
2023-05-04T06:37:21.527Z,1011.78
2023-05-04T06:40:21.526Z,1011.82
2023-05-04T06:43:21.530Z,1011.79
2023-05-04T06:46:21.625Z,1011.77
2023-05-04T06:49:21.557Z,1011.71
2023-05-04T06:52:21.522Z,1011.74
2023-05-04T06:55:21.516Z,1011.74
2023-05-04T06:58:21.514Z,1011.74
2023-05-04T07:01:21.596Z,1011.7
2023-05-04T07:04:21.539Z,1011.7
2023-05-04T07:07:21.534Z,1011.75
2023-05-04T07:10:21.526Z,1011.82
2023-05-04T07:13:21.532Z,1011.79
2023-05-04T07:16:21.557Z,1011.79
2023-05-04T07:19:21.542Z,1011.75
2023-05-04T07:22:21.543Z,1011.7
2023-05-04T07:25:21.533Z,1011.63
2023-05-04T07:28:21.524Z,1011.58
2023-05-04T07:31:21.593Z,1011.54
2023-05-04T07:34:25.288Z,1011.52
2023-05-04T07:37:21.521Z,1011.5
2023-05-04T07:40:21.519Z,1011.45
2023-05-04T07:43:21.517Z,1011.46
2023-05-04T07:46:21.532Z,1011.44
2023-05-04T07:49:21.522Z,1011.45
2023-05-04T07:52:21.513Z,1011.45
2023-05-04T07:55:21.515Z,1011.47
2023-05-04T07:58:21.508Z,1011.42
2023-05-04T08:01:21.518Z,1011.39
2023-05-04T08:04:21.512Z,1011.4
2023-05-04T08:07:21.500Z,1011.4
2023-05-04T08:10:21.498Z,1011.36
2023-05-04T08:13:21.507Z,1011.38
2023-05-04T08:16:21.542Z,1011.34
2023-05-04T08:19:21.486Z,1011.27
2023-05-04T08:22:21.497Z,1011.21
2023-05-04T08:25:21.492Z,1011.18
2023-05-04T08:28:21.483Z,1011.1
2023-05-04T08:31:21.546Z,1011.12
2023-05-04T08:34:21.478Z,1011.06
2023-05-04T08:37:21.480Z,1011.03
2023-05-04T08:40:21.467Z,1011.07
2023-05-04T08:43:21.476Z,1011.01
2023-05-04T08:46:21.497Z,1010.97
2023-05-04T08:49:21.470Z,1010.89
2023-05-04T08:52:21.471Z,1010.86
2023-05-04T08:55:21.466Z,1010.87
2023-05-04T08:58:21.445Z,1010.91
2023-05-04T09:01:21.525Z,1010.84
2023-05-04T09:04:21.457Z,1010.75
2023-05-04T09:07:21.452Z,1010.7
2023-05-04T09:10:21.461Z,1010.67
2023-05-04T09:13:21.455Z,1010.68
2023-05-04T09:16:21.451Z,1010.63
2023-05-04T09:19:21.449Z,1010.62
2023-05-04T09:22:21.462Z,1010.61
2023-05-04T09:25:21.438Z,1010.6
2023-05-04T09:28:21.430Z,1010.56
2023-05-04T09:31:21.452Z,1010.52
2023-05-04T09:34:21.507Z,1010.51
2023-05-04T09:37:21.442Z,1010.5
2023-05-04T09:40:21.421Z,1010.47
2023-05-04T09:43:21.418Z,1010.45
2023-05-04T09:46:21.422Z,1010.44
2023-05-04T09:49:21.421Z,1010.39
2023-05-04T09:52:21.418Z,1010.36
2023-05-04T09:55:21.432Z,1010.34
2023-05-04T09:58:21.427Z,1010.3
2023-05-04T10:01:21.414Z,1010.21
2023-05-04T10:04:21.408Z,1010.17
2023-05-04T10:07:21.408Z,1010.11
2023-05-04T10:10:21.420Z,1010.08
2023-05-04T10:13:21.402Z,1010.01
2023-05-04T10:16:21.425Z,1010.04
2023-05-04T10:19:21.395Z,1009.99
2023-05-04T10:22:21.394Z,1010
2023-05-04T10:25:21.391Z,1009.93
2023-05-04T10:28:21.395Z,1009.89
2023-05-04T10:31:21.440Z,1009.89
2023-05-04T10:34:21.392Z,1009.86
2023-05-04T10:37:21.394Z,1009.85
2023-05-04T10:40:21.402Z,1009.78
2023-05-04T10:43:21.402Z,1009.69
2023-05-04T10:46:21.427Z,1009.73
2023-05-04T10:49:21.398Z,1009.65
2023-05-04T10:52:21.393Z,1009.52
2023-05-04T10:55:21.403Z,1009.5
2023-05-04T10:58:21.390Z,1009.44
2023-05-04T11:01:21.465Z,1009.31
2023-05-04T11:04:21.395Z,1009.23
2023-05-04T11:07:21.397Z,1009.22
2023-05-04T11:10:21.470Z,1009.22
2023-05-04T11:13:21.515Z,1009.16
2023-05-04T11:16:21.424Z,1009.01
2023-05-04T11:19:21.405Z,1008.98
2023-05-04T11:22:21.402Z,1008.95
2023-05-04T11:25:21.408Z,1008.89
2023-05-04T11:28:21.406Z,1008.82
2023-05-04T11:31:21.461Z,1008.76
2023-05-04T11:34:21.458Z,1008.8
2023-05-04T11:37:21.410Z,1008.68
2023-05-04T11:40:21.406Z,1008.66
2023-05-04T11:43:21.425Z,1008.61
2023-05-04T11:46:21.429Z,1008.6
2023-05-04T11:49:21.413Z,1008.6
2023-05-04T11:52:21.418Z,1008.48
2023-05-04T11:55:21.415Z,1008.46
2023-05-04T11:58:21.423Z,1008.42
2023-05-04T12:01:21.410Z,1008.33
2023-05-04T12:04:21.424Z,1008.34
2023-05-04T12:07:21.415Z,1008.38
2023-05-04T12:10:21.412Z,1008.3
2023-05-04T12:13:21.526Z,1008.37
2023-05-04T12:16:21.500Z,1008.36
2023-05-04T12:19:21.416Z,1008.33
2023-05-04T12:22:21.410Z,1008.33
2023-05-04T12:25:21.417Z,1008.29
2023-05-04T12:28:21.408Z,1008.28
2023-05-04T12:31:22.392Z,1008.23
2023-05-04T12:34:21.444Z,1008.15
2023-05-04T12:37:23.269Z,1008.04
2023-05-04T12:40:28.121Z,1008.03
2023-05-04T12:43:21.425Z,1008.03
2023-05-04T12:46:21.528Z,1008.05
2023-05-04T12:49:22.913Z,1008.03
2023-05-04T12:52:21.428Z,1007.97
2023-05-04T12:55:22.804Z,1007.91
2023-05-04T12:58:21.423Z,1007.94
2023-05-04T13:01:21.453Z,1007.88
2023-05-04T13:04:21.424Z,1007.91
2023-05-04T13:07:21.418Z,1007.87
2023-05-04T13:10:21.426Z,1007.74
2023-05-04T13:13:21.474Z,1007.72
2023-05-04T13:16:21.471Z,1007.61
2023-05-04T13:19:21.553Z,1007.55
2023-05-04T13:22:21.468Z,1007.44
2023-05-04T13:25:21.466Z,1007.58
2023-05-04T13:28:21.481Z,1007.46
2023-05-04T13:31:21.470Z,1007.44
2023-05-04T13:34:21.477Z,1007.51
2023-05-04T13:37:21.460Z,1007.4
2023-05-04T13:40:21.461Z,1007.42
2023-05-04T13:43:21.553Z,1007.29
2023-05-04T13:46:21.514Z,1007.19
2023-05-04T13:49:21.479Z,1007.22
2023-05-04T13:52:21.490Z,1007.19
2023-05-04T13:55:21.479Z,1007.17
2023-05-04T13:58:21.496Z,1007.09
2023-05-04T14:01:21.574Z,1007.05
2023-05-04T14:04:21.516Z,1006.84
2023-05-04T14:07:21.512Z,1006.85
2023-05-04T14:10:21.506Z,1006.85
2023-05-04T14:13:21.518Z,1006.78
2023-05-04T14:16:21.533Z,1006.69
2023-05-04T14:19:21.533Z,1006.64
2023-05-04T14:22:21.517Z,1006.58
2023-05-04T14:25:21.526Z,1006.51
2023-05-04T14:28:21.542Z,1006.45
2023-05-04T14:31:21.539Z,1006.44
2023-05-04T14:34:21.589Z,1006.41
2023-05-04T14:37:21.522Z,1006.43
2023-05-04T14:40:21.531Z,1006.36
2023-05-04T14:43:21.530Z,1006.4
2023-05-04T14:46:21.660Z,1006.35
2023-05-04T14:49:35.352Z,1006.33
2023-05-04T14:52:21.574Z,1006.3
2023-05-04T14:55:21.580Z,1006.26
2023-05-04T14:58:21.585Z,1006.27
2023-05-04T15:01:21.597Z,1006.24
2023-05-04T15:04:21.583Z,1006.1
2023-05-04T15:07:21.576Z,1006.03
2023-05-04T15:10:21.617Z,1006.03
2023-05-04T15:13:21.564Z,1005.99
2023-05-04T15:16:21.590Z,1006.04
2023-05-04T15:19:21.563Z,1005.99
2023-05-04T15:22:21.564Z,1005.98
2023-05-04T15:25:21.563Z,1005.98
2023-05-04T15:28:21.554Z,1006.01
2023-05-04T15:31:21.604Z,1006.03
2023-05-04T15:34:21.550Z,1006.04
2023-05-04T15:37:21.558Z,1006.07
2023-05-04T15:40:21.548Z,1006.05
2023-05-04T15:43:21.534Z,1006.12
2023-05-04T15:46:21.565Z,1006.04
2023-05-04T15:49:21.551Z,1006.06
2023-05-04T15:52:21.529Z,1005.99
2023-05-04T15:55:25.109Z,1005.98
2023-05-04T15:58:21.537Z,1005.93
2023-05-04T16:01:21.569Z,1005.91
2023-05-04T16:04:21.535Z,1005.9
2023-05-04T16:07:21.536Z,1005.83
2023-05-04T16:10:21.541Z,1005.83
2023-05-04T16:13:21.639Z,1005.73
2023-05-04T16:16:21.586Z,1005.68
2023-05-04T16:19:21.543Z,1005.7
2023-05-04T16:22:21.539Z,1005.64
2023-05-04T16:25:21.556Z,1005.57
2023-05-04T16:28:21.566Z,1005.51
2023-05-04T16:31:21.545Z,1005.47
2023-05-04T16:34:21.549Z,1005.43
2023-05-04T16:37:21.545Z,1005.39
2023-05-04T16:40:21.572Z,1005.31
2023-05-04T16:43:21.538Z,1005.3
2023-05-04T16:46:21.584Z,1005.34
2023-05-04T16:49:21.576Z,1005.42
2023-05-04T16:52:21.575Z,1005.49
2023-05-04T16:55:21.586Z,1005.58
2023-05-04T16:58:21.582Z,1005.46
2023-05-04T17:01:21.603Z,1005.42
2023-05-04T17:04:21.586Z,1005.41
2023-05-04T17:07:21.603Z,1005.38
2023-05-04T17:10:21.589Z,1005.3
2023-05-04T17:13:21.585Z,1005.27
2023-05-04T17:16:21.601Z,1005.25
2023-05-04T17:19:21.587Z,1005.23
2023-05-04T17:22:21.588Z,1005.19
2023-05-04T17:25:21.582Z,1005.2
2023-05-04T17:28:21.574Z,1005.23
2023-05-04T17:31:21.611Z,1005.18
2023-05-04T17:34:21.589Z,1005.17
2023-05-04T17:37:21.586Z,1005.23
2023-05-04T17:40:21.586Z,1005.25
2023-05-04T17:43:21.581Z,1005.22
2023-05-04T17:46:21.596Z,1005.19
2023-05-04T17:49:21.588Z,1005.21
2023-05-04T17:52:21.672Z,1005.22
2023-05-04T17:55:21.681Z,1005.29
2023-05-04T17:58:21.677Z,1005.3
2023-05-04T18:01:21.721Z,1005.33
2023-05-04T18:04:21.721Z,1005.39
2023-05-04T18:07:21.692Z,1005.41
2023-05-04T18:10:21.686Z,1005.43
2023-05-04T18:13:23.283Z,1005.47
2023-05-04T18:16:22.181Z,1005.44
2023-05-04T18:19:22.121Z,1005.46
2023-05-04T18:22:22.092Z,1005.47
2023-05-04T18:25:22.095Z,1005.44
2023-05-04T18:28:22.009Z,1005.47
2023-05-04T18:31:22.068Z,1005.48
2023-05-04T18:34:22.055Z,1005.55
2023-05-04T18:37:21.880Z,1005.5
2023-05-04T18:40:21.887Z,1005.46
2023-05-04T18:43:21.875Z,1005.48
2023-05-04T18:46:21.952Z,1005.49
2023-05-04T18:49:21.886Z,1005.6
2023-05-04T18:52:21.941Z,1005.71
2023-05-04T18:55:21.892Z,1005.74
2023-05-04T18:58:21.889Z,1005.77
2023-05-04T19:01:22.011Z,1005.75
2023-05-04T19:04:21.874Z,1005.83
2023-05-04T19:07:21.896Z,1005.86
2023-05-04T19:10:21.874Z,1005.86
2023-05-04T19:13:21.874Z,1005.89
2023-05-04T19:16:21.963Z,1005.92
2023-05-04T19:19:21.874Z,1005.96
2023-05-04T19:22:21.874Z,1005.93
2023-05-04T19:25:33.499Z,1005.98
2023-05-04T19:28:21.920Z,1005.97
2023-05-04T19:31:21.931Z,1005.99
2023-05-04T19:34:21.892Z,1005.97
2023-05-04T19:37:21.889Z,1006.01
2023-05-04T19:40:21.865Z,1006.04
2023-05-04T19:43:21.873Z,1006.02
2023-05-04T19:46:21.874Z,1006.04
2023-05-04T19:49:21.888Z,1006.06
2023-05-04T19:52:21.872Z,1006.03
2023-05-04T19:55:21.867Z,1006.03
2023-05-04T19:58:21.861Z,1006.01
2023-05-04T20:01:21.886Z,1006.06
2023-05-04T20:04:21.863Z,1006.07
2023-05-04T20:07:21.867Z,1006.03
2023-05-04T20:10:21.863Z,1006.04
2023-05-04T20:13:21.864Z,1006.05
2023-05-04T20:16:21.877Z,1006.06
2023-05-04T20:19:21.866Z,1006.01
2023-05-04T20:22:21.858Z,1006.04
2023-05-04T20:25:21.860Z,1006
2023-05-04T20:28:21.860Z,1006.06
2023-05-04T20:31:21.992Z,1006.05
2023-05-04T20:34:21.857Z,1006.07
2023-05-04T20:37:21.846Z,1006.04
2023-05-04T20:40:21.843Z,1006.06
2023-05-04T20:43:21.852Z,1005.99
2023-05-04T20:46:21.884Z,1005.98
2023-05-04T20:49:21.853Z,1006.01
2023-05-04T20:52:21.843Z,1006.07
2023-05-04T20:55:21.851Z,1006.06
2023-05-04T20:58:21.847Z,1006.01
2023-05-04T21:01:21.864Z,1006.01
2023-05-04T21:04:21.841Z,1005.98
2023-05-04T21:07:21.844Z,1005.96
2023-05-04T21:10:21.842Z,1005.9
2023-05-04T21:13:21.842Z,1005.86
2023-05-04T21:16:21.874Z,1005.85
2023-05-04T21:19:21.849Z,1005.85
2023-05-04T21:22:21.840Z,1005.81
2023-05-04T21:25:21.846Z,1005.81
2023-05-04T21:28:21.838Z,1005.83
2023-05-04T21:31:21.842Z,1005.79
2023-05-04T21:34:21.831Z,1005.8
2023-05-04T21:37:21.837Z,1005.79
2023-05-04T21:40:21.836Z,1005.81
2023-05-04T21:43:21.830Z,1005.74
2023-05-04T21:46:21.866Z,1005.79
2023-05-04T21:49:21.828Z,1005.83
2023-05-04T21:52:21.830Z,1005.82
2023-05-04T21:55:21.839Z,1005.91
2023-05-04T21:58:21.828Z,1005.92
2023-05-04T22:01:21.902Z,1005.88
2023-05-04T22:04:21.906Z,1005.85
2023-05-04T22:07:21.824Z,1005.82
2023-05-04T22:10:21.903Z,1005.82
2023-05-04T22:13:21.824Z,1005.83
2023-05-04T22:16:21.835Z,1005.84
2023-05-04T22:19:21.831Z,1005.76
2023-05-04T22:22:21.820Z,1005.75
2023-05-04T22:25:21.826Z,1005.77
2023-05-04T22:28:21.838Z,1005.76
2023-05-04T22:31:21.878Z,1005.75
2023-05-04T22:34:21.828Z,1005.8
2023-05-04T22:37:21.821Z,1005.81
2023-05-04T22:40:21.814Z,1005.84
2023-05-04T22:43:21.815Z,1005.85
2023-05-04T22:46:21.857Z,1005.87
2023-05-04T22:49:21.812Z,1005.88
2023-05-04T22:52:21.833Z,1005.86
2023-05-04T22:55:21.824Z,1005.85
2023-05-04T22:58:21.812Z,1005.84
2023-05-04T23:01:21.814Z,1005.87
2023-05-04T23:04:21.812Z,1005.9
2023-05-04T23:07:21.809Z,1005.89
2023-05-04T23:10:26.829Z,1005.89
2023-05-04T23:13:21.814Z,1005.87
2023-05-04T23:16:21.810Z,1005.84
2023-05-04T23:19:21.823Z,1005.82
2023-05-04T23:22:21.805Z,1005.85
2023-05-04T23:25:21.813Z,1005.82
2023-05-04T23:28:21.806Z,1005.86
2023-05-04T23:31:21.809Z,1005.84
2023-05-04T23:34:21.803Z,1005.82
2023-05-04T23:37:21.804Z,1005.76
2023-05-04T23:40:21.830Z,1005.7
2023-05-04T23:43:21.804Z,1005.72
2023-05-04T23:46:21.808Z,1005.73
2023-05-04T23:49:21.801Z,1005.72
2023-05-04T23:52:21.792Z,1005.76
2023-05-04T23:55:21.795Z,1005.72
2023-05-04T23:58:21.822Z,1005.73
